sensor_id;sensor_type;location;lat;lon;timestamp;temperature;humidity
15617;DHT22;7908;51.688;7.130;2022-12-29T00:00:01;9.40;99.90
15617;DHT22;7908;51.688;7.130;2022-12-29T00:02:33;9.40;99.90
15617;DHT22;7908;51.688;7.130;2022-12-29T00:05:05;9.40;99.90
15617;DHT22;7908;51.688;7.130;2022-12-29T00:07:35;9.40;99.90
15617;DHT22;7908;51.688;7.130;2022-12-29T00:10:08;9.50;99.90
15617;DHT22;7908;51.688;7.130;2022-12-29T00:12:53;9.50;99.90
15617;DHT22;7908;51.688;7.130;2022-12-29T00:15:54;9.50;99.90
15617;DHT22;7908;51.688;7.130;2022-12-29T00:18:23;9.50;99.90
15617;DHT22;7908;51.688;7.130;2022-12-29T00:20:57;9.50;99.90
15617;DHT22;7908;51.688;7.130;2022-12-29T00:23:44;9.60;99.90
15617;DHT22;7908;51.688;7.130;2022-12-29T00:26:33;9.50;99.90
15617;DHT22;7908;51.688;7.130;2022-12-29T00:29:21;9.60;99.90
15617;DHT22;7908;51.688;7.130;2022-12-29T00:32:09;9.50;99.90
15617;DHT22;7908;51.688;7.130;2022-12-29T00:34:55;9.60;99.90
15617;DHT22;7908;51.688;7.130;2022-12-29T00:37:37;9.60;99.90
15617;DHT22;7908;51.688;7.130;2022-12-29T00:40:22;9.60;99.90
15617;DHT22;7908;51.688;7.130;2022-12-29T00:43:08;9.60;99.90
15617;DHT22;7908;51.688;7.130;2022-12-29T00:45:57;9.60;99.90
15617;DHT22;7908;51.688;7.130;2022-12-29T00:48:28;9.60;99.90
15617;DHT22;7908;51.688;7.130;2022-12-29T00:51:14;9.60;99.90
15617;DHT22;7908;51.688;7.130;2022-12-29T00:53:44;9.60;99.90
15617;DHT22;7908;51.688;7.130;2022-12-29T00:56:14;9.60;99.90
15617;DHT22;7908;51.688;7.130;2022-12-29T00:58:44;9.60;99.90
15617;DHT22;7908;51.688;7.130;2022-12-29T01:01:14;9.60;99.90
15617;DHT22;7908;51.688;7.130;2022-12-29T01:03:44;9.60;99.90
15617;DHT22;7908;51.688;7.130;2022-12-29T01:06:14;9.70;99.90
15617;DHT22;7908;51.688;7.130;2022-12-29T01:08:44;9.70;99.90
15617;DHT22;7908;51.688;7.130;2022-12-29T01:11:13;9.70;99.90
15617;DHT22;7908;51.688;7.130;2022-12-29T01:13:43;9.70;99.90
15617;DHT22;7908;51.688;7.130;2022-12-29T01:16:16;9.70;99.90
15617;DHT22;7908;51.688;7.130;2022-12-29T01:18:46;9.70;99.90
15617;DHT22;7908;51.688;7.130;2022-12-29T01:21:15;9.70;99.90
15617;DHT22;7908;51.688;7.130;2022-12-29T01:23:44;9.70;99.90
15617;DHT22;7908;51.688;7.130;2022-12-29T01:26:14;9.80;99.90
15617;DHT22;7908;51.688;7.130;2022-12-29T01:28:44;9.80;99.90
15617;DHT22;7908;51.688;7.130;2022-12-29T01:31:14;9.80;99.90
15617;DHT22;7908;51.688;7.130;2022-12-29T01:33:45;9.80;99.90
15617;DHT22;7908;51.688;7.130;2022-12-29T01:36:15;9.80;99.90
15617;DHT22;7908;51.688;7.130;2022-12-29T01:38:44;9.80;99.90
15617;DHT22;7908;51.688;7.130;2022-12-29T01:41:14;9.80;99.90
15617;DHT22;7908;51.688;7.130;2022-12-29T01:43:46;9.80;99.90
15617;DHT22;7908;51.688;7.130;2022-12-29T01:46:20;9.80;99.90
15617;DHT22;7908;51.688;7.130;2022-12-29T01:48:55;9.80;99.90
15617;DHT22;7908;51.688;7.130;2022-12-29T01:51:26;9.80;99.90
15617;DHT22;7908;51.688;7.130;2022-12-29T01:53:58;9.80;99.90
15617;DHT22;7908;51.688;7.130;2022-12-29T01:56:29;9.80;99.90
15617;DHT22;7908;51.688;7.130;2022-12-29T01:59:04;9.80;99.90
15617;DHT22;7908;51.688;7.130;2022-12-29T02:01:34;9.80;99.90
15617;DHT22;7908;51.688;7.130;2022-12-29T02:04:05;9.80;99.90
15617;DHT22;7908;51.688;7.130;2022-12-29T02:06:39;9.90;99.90
15617;DHT22;7908;51.688;7.130;2022-12-29T02:09:10;9.80;99.90
15617;DHT22;7908;51.688;7.130;2022-12-29T02:11:40;9.90;99.90
15617;DHT22;7908;51.688;7.130;2022-12-29T02:14:10;9.90;99.90
15617;DHT22;7908;51.688;7.130;2022-12-29T02:16:55;9.90;99.90
15617;DHT22;7908;51.688;7.130;2022-12-29T02:22:34;9.90;99.90
15617;DHT22;7908;51.688;7.130;2022-12-29T02:25:30;9.90;99.90
15617;DHT22;7908;51.688;7.130;2022-12-29T02:28:38;10.00;99.90
15617;DHT22;7908;51.688;7.130;2022-12-29T02:31:16;10.00;99.90
15617;DHT22;7908;51.688;7.130;2022-12-29T02:33:55;10.00;99.90
15617;DHT22;7908;51.688;7.130;2022-12-29T02:36:36;10.00;99.90
15617;DHT22;7908;51.688;7.130;2022-12-29T02:39:15;10.00;99.90
15617;DHT22;7908;51.688;7.130;2022-12-29T02:41:56;10.00;99.90
15617;DHT22;7908;51.688;7.130;2022-12-29T02:44:34;10.10;99.90
15617;DHT22;7908;51.688;7.130;2022-12-29T02:47:09;10.10;99.90
15617;DHT22;7908;51.688;7.130;2022-12-29T02:49:47;10.10;99.90
15617;DHT22;7908;51.688;7.130;2022-12-29T02:52:19;10.10;99.90
15617;DHT22;7908;51.688;7.130;2022-12-29T02:54:53;10.10;99.90
15617;DHT22;7908;51.688;7.130;2022-12-29T02:57:30;10.10;99.90
15617;DHT22;7908;51.688;7.130;2022-12-29T03:00:03;10.10;99.90
15617;DHT22;7908;51.688;7.130;2022-12-29T03:02:54;10.10;99.90
15617;DHT22;7908;51.688;7.130;2022-12-29T03:05:53;10.10;99.90
15617;DHT22;7908;51.688;7.130;2022-12-29T03:08:34;10.10;99.90
15617;DHT22;7908;51.688;7.130;2022-12-29T03:11:08;10.10;99.90
15617;DHT22;7908;51.688;7.130;2022-12-29T03:14:03;10.10;99.90
15617;DHT22;7908;51.688;7.130;2022-12-29T03:16:53;10.10;99.90
15617;DHT22;7908;51.688;7.130;2022-12-29T03:19:28;10.20;99.90
15617;DHT22;7908;51.688;7.130;2022-12-29T03:22:02;10.10;99.90
15617;DHT22;7908;51.688;7.130;2022-12-29T03:24:51;10.10;99.90
15617;DHT22;7908;51.688;7.130;2022-12-29T03:27:25;10.10;99.90
15617;DHT22;7908;51.688;7.130;2022-12-29T03:29:59;10.10;99.90
15617;DHT22;7908;51.688;7.130;2022-12-29T03:32:35;10.10;99.90
15617;DHT22;7908;51.688;7.130;2022-12-29T03:35:09;10.10;99.90
15617;DHT22;7908;51.688;7.130;2022-12-29T03:37:44;10.10;99.90
15617;DHT22;7908;51.688;7.130;2022-12-29T03:40:14;10.10;99.90
15617;DHT22;7908;51.688;7.130;2022-12-29T03:42:44;10.00;99.90
15617;DHT22;7908;51.688;7.130;2022-12-29T03:45:13;10.00;99.90
15617;DHT22;7908;51.688;7.130;2022-12-29T03:47:44;10.10;99.90
15617;DHT22;7908;51.688;7.130;2022-12-29T03:50:15;10.00;99.90
15617;DHT22;7908;51.688;7.130;2022-12-29T03:52:44;10.00;99.90
15617;DHT22;7908;51.688;7.130;2022-12-29T03:55:13;10.00;99.90
15617;DHT22;7908;51.688;7.130;2022-12-29T03:57:44;10.00;99.90
15617;DHT22;7908;51.688;7.130;2022-12-29T04:00:13;10.00;99.90
15617;DHT22;7908;51.688;7.130;2022-12-29T04:02:44;10.00;99.90
15617;DHT22;7908;51.688;7.130;2022-12-29T04:05:15;10.00;99.90
15617;DHT22;7908;51.688;7.130;2022-12-29T04:07:44;10.00;99.90
15617;DHT22;7908;51.688;7.130;2022-12-29T04:10:13;10.00;99.90
15617;DHT22;7908;51.688;7.130;2022-12-29T04:12:42;10.00;99.90
15617;DHT22;7908;51.688;7.130;2022-12-29T04:15:12;10.00;99.90
15617;DHT22;7908;51.688;7.130;2022-12-29T04:17:42;9.90;99.90
15617;DHT22;7908;51.688;7.130;2022-12-29T04:20:11;9.90;99.90
15617;DHT22;7908;51.688;7.130;2022-12-29T04:23:00;9.90;99.90
15617;DHT22;7908;51.688;7.130;2022-12-29T04:25:30;9.90;99.90
15617;DHT22;7908;51.688;7.130;2022-12-29T04:28:00;9.90;99.90
15617;DHT22;7908;51.688;7.130;2022-12-29T04:30:30;9.90;99.90
15617;DHT22;7908;51.688;7.130;2022-12-29T04:32:59;9.90;99.90
15617;DHT22;7908;51.688;7.130;2022-12-29T04:35:27;10.00;99.90
15617;DHT22;7908;51.688;7.130;2022-12-29T04:37:56;10.00;99.90
15617;DHT22;7908;51.688;7.130;2022-12-29T04:40:26;10.00;99.90
15617;DHT22;7908;51.688;7.130;2022-12-29T04:42:54;10.00;99.90
15617;DHT22;7908;51.688;7.130;2022-12-29T04:45:24;10.00;99.90
15617;DHT22;7908;51.688;7.130;2022-12-29T04:47:53;10.00;99.90
15617;DHT22;7908;51.688;7.130;2022-12-29T04:50:22;10.00;99.90
15617;DHT22;7908;51.688;7.130;2022-12-29T04:52:52;10.00;99.90
15617;DHT22;7908;51.688;7.130;2022-12-29T04:55:21;10.00;99.90
15617;DHT22;7908;51.688;7.130;2022-12-29T04:57:51;10.00;99.90
15617;DHT22;7908;51.688;7.130;2022-12-29T05:00:20;10.00;99.90
15617;DHT22;7908;51.688;7.130;2022-12-29T05:02:50;10.00;99.90
15617;DHT22;7908;51.688;7.130;2022-12-29T05:05:20;10.10;99.90
15617;DHT22;7908;51.688;7.130;2022-12-29T05:07:50;10.10;99.90
15617;DHT22;7908;51.688;7.130;2022-12-29T05:10:19;9.90;99.90
15617;DHT22;7908;51.688;7.130;2022-12-29T05:12:48;9.60;99.90
15617;DHT22;7908;51.688;7.130;2022-12-29T05:15:18;9.50;99.90
15617;DHT22;7908;51.688;7.130;2022-12-29T05:18:14;9.40;99.90
15617;DHT22;7908;51.688;7.130;2022-12-29T05:20:46;9.40;99.90
15617;DHT22;7908;51.688;7.130;2022-12-29T05:23:16;9.30;99.90
15617;DHT22;7908;51.688;7.130;2022-12-29T05:25:44;9.30;99.90
15617;DHT22;7908;51.688;7.130;2022-12-29T05:28:14;9.30;99.90
15617;DHT22;7908;51.688;7.130;2022-12-29T05:30:48;9.30;99.90
15617;DHT22;7908;51.688;7.130;2022-12-29T05:33:17;9.30;99.90
15617;DHT22;7908;51.688;7.130;2022-12-29T05:35:46;9.20;99.90
15617;DHT22;7908;51.688;7.130;2022-12-29T05:38:15;9.20;99.90
15617;DHT22;7908;51.688;7.130;2022-12-29T05:40:44;9.20;99.90
15617;DHT22;7908;51.688;7.130;2022-12-29T05:43:13;9.20;99.90
15617;DHT22;7908;51.688;7.130;2022-12-29T05:45:42;9.20;99.90
15617;DHT22;7908;51.688;7.130;2022-12-29T05:48:12;9.20;99.90
15617;DHT22;7908;51.688;7.130;2022-12-29T05:50:41;9.10;99.90
15617;DHT22;7908;51.688;7.130;2022-12-29T05:53:10;9.20;99.90
15617;DHT22;7908;51.688;7.130;2022-12-29T05:55:40;9.10;99.90
15617;DHT22;7908;51.688;7.130;2022-12-29T05:58:15;9.10;99.90
15617;DHT22;7908;51.688;7.130;2022-12-29T06:00:44;9.10;99.90
15617;DHT22;7908;51.688;7.130;2022-12-29T06:03:14;9.10;99.90
15617;DHT22;7908;51.688;7.130;2022-12-29T06:05:45;9.00;99.90
15617;DHT22;7908;51.688;7.130;2022-12-29T06:08:14;9.00;99.90
15617;DHT22;7908;51.688;7.130;2022-12-29T06:10:43;9.00;99.90
15617;DHT22;7908;51.688;7.130;2022-12-29T06:13:12;9.00;99.90
15617;DHT22;7908;51.688;7.130;2022-12-29T06:15:41;9.00;99.90
15617;DHT22;7908;51.688;7.130;2022-12-29T06:18:10;9.00;99.90
15617;DHT22;7908;51.688;7.130;2022-12-29T06:20:47;9.00;99.90
15617;DHT22;7908;51.688;7.130;2022-12-29T06:23:16;9.00;99.90
15617;DHT22;7908;51.688;7.130;2022-12-29T06:25:47;9.00;99.90
15617;DHT22;7908;51.688;7.130;2022-12-29T06:28:16;8.90;99.90
15617;DHT22;7908;51.688;7.130;2022-12-29T06:30:45;9.00;99.90
15617;DHT22;7908;51.688;7.130;2022-12-29T06:33:15;8.90;99.90
15617;DHT22;7908;51.688;7.130;2022-12-29T06:35:44;8.90;99.90
15617;DHT22;7908;51.688;7.130;2022-12-29T06:38:15;8.90;99.90
15617;DHT22;7908;51.688;7.130;2022-12-29T06:40:44;8.90;99.90
15617;DHT22;7908;51.688;7.130;2022-12-29T06:43:14;8.90;99.90
15617;DHT22;7908;51.688;7.130;2022-12-29T06:45:46;8.90;99.90
15617;DHT22;7908;51.688;7.130;2022-12-29T06:48:16;9.00;99.90
15617;DHT22;7908;51.688;7.130;2022-12-29T06:50:45;9.00;99.90
15617;DHT22;7908;51.688;7.130;2022-12-29T06:53:18;9.00;99.90
15617;DHT22;7908;51.688;7.130;2022-12-29T06:55:47;9.00;99.90
15617;DHT22;7908;51.688;7.130;2022-12-29T06:58:21;9.00;99.90
15617;DHT22;7908;51.688;7.130;2022-12-29T07:00:50;9.00;99.90
15617;DHT22;7908;51.688;7.130;2022-12-29T07:03:22;9.00;99.90
15617;DHT22;7908;51.688;7.130;2022-12-29T07:05:52;9.00;99.90
15617;DHT22;7908;51.688;7.130;2022-12-29T07:08:23;9.00;99.90
15617;DHT22;7908;51.688;7.130;2022-12-29T07:10:53;9.10;99.90
15617;DHT22;7908;51.688;7.130;2022-12-29T07:13:22;9.00;99.90
15617;DHT22;7908;51.688;7.130;2022-12-29T07:15:51;9.10;99.90
15617;DHT22;7908;51.688;7.130;2022-12-29T07:18:20;9.10;99.90
15617;DHT22;7908;51.688;7.130;2022-12-29T07:20:49;9.20;99.90
15617;DHT22;7908;51.688;7.130;2022-12-29T07:23:18;9.20;99.90
15617;DHT22;7908;51.688;7.130;2022-12-29T07:25:48;9.20;99.90
15617;DHT22;7908;51.688;7.130;2022-12-29T07:28:18;9.20;99.90
15617;DHT22;7908;51.688;7.130;2022-12-29T07:30:47;9.20;99.90
15617;DHT22;7908;51.688;7.130;2022-12-29T07:33:16;9.10;99.90
15617;DHT22;7908;51.688;7.130;2022-12-29T07:35:46;9.10;99.90
15617;DHT22;7908;51.688;7.130;2022-12-29T07:38:16;9.10;99.90
15617;DHT22;7908;51.688;7.130;2022-12-29T07:40:48;9.10;99.90
15617;DHT22;7908;51.688;7.130;2022-12-29T07:43:19;9.10;99.90
15617;DHT22;7908;51.688;7.130;2022-12-29T07:45:50;9.10;99.90
15617;DHT22;7908;51.688;7.130;2022-12-29T07:48:22;9.10;99.90
15617;DHT22;7908;51.688;7.130;2022-12-29T07:50:52;9.20;99.90
15617;DHT22;7908;51.688;7.130;2022-12-29T07:53:22;9.20;99.90
15617;DHT22;7908;51.688;7.130;2022-12-29T07:55:56;9.10;99.90
15617;DHT22;7908;51.688;7.130;2022-12-29T07:58:25;9.10;99.90
15617;DHT22;7908;51.688;7.130;2022-12-29T08:00:55;9.10;99.90
15617;DHT22;7908;51.688;7.130;2022-12-29T08:03:27;9.10;99.90
15617;DHT22;7908;51.688;7.130;2022-12-29T08:05:57;9.00;99.90
15617;DHT22;7908;51.688;7.130;2022-12-29T08:08:31;9.00;99.90
15617;DHT22;7908;51.688;7.130;2022-12-29T08:11:13;9.00;99.90
15617;DHT22;7908;51.688;7.130;2022-12-29T08:13:46;9.10;99.90
15617;DHT22;7908;51.688;7.130;2022-12-29T08:16:20;9.00;99.90
15617;DHT22;7908;51.688;7.130;2022-12-29T08:18:55;9.10;99.90
15617;DHT22;7908;51.688;7.130;2022-12-29T08:21:28;9.10;99.90
15617;DHT22;7908;51.688;7.130;2022-12-29T08:24:04;9.10;99.90
15617;DHT22;7908;51.688;7.130;2022-12-29T08:26:38;9.20;99.90
15617;DHT22;7908;51.688;7.130;2022-12-29T08:29:07;9.20;99.90
15617;DHT22;7908;51.688;7.130;2022-12-29T08:31:48;9.20;99.90
15617;DHT22;7908;51.688;7.130;2022-12-29T08:34:22;9.20;99.90
15617;DHT22;7908;51.688;7.130;2022-12-29T08:37:07;9.20;99.90
15617;DHT22;7908;51.688;7.130;2022-12-29T08:39:57;9.10;99.90
15617;DHT22;7908;51.688;7.130;2022-12-29T08:42:38;9.10;99.90
15617;DHT22;7908;51.688;7.130;2022-12-29T08:45:09;9.10;99.90
15617;DHT22;7908;51.688;7.130;2022-12-29T08:47:38;9.10;99.90
15617;DHT22;7908;51.688;7.130;2022-12-29T08:50:14;9.10;99.90
15617;DHT22;7908;51.688;7.130;2022-12-29T08:52:52;9.10;99.90
15617;DHT22;7908;51.688;7.130;2022-12-29T08:55:27;9.10;99.90
15617;DHT22;7908;51.688;7.130;2022-12-29T08:58:13;9.10;99.90
15617;DHT22;7908;51.688;7.130;2022-12-29T09:00:55;9.10;99.90
15617;DHT22;7908;51.688;7.130;2022-12-29T09:03:48;9.10;99.90
15617;DHT22;7908;51.688;7.130;2022-12-29T09:06:44;9.10;99.90
15617;DHT22;7908;51.688;7.130;2022-12-29T09:09:14;9.00;99.90
15617;DHT22;7908;51.688;7.130;2022-12-29T09:11:46;9.00;99.90
15617;DHT22;7908;51.688;7.130;2022-12-29T09:14:20;9.10;99.90
15617;DHT22;7908;51.688;7.130;2022-12-29T09:17:01;9.10;99.90
15617;DHT22;7908;51.688;7.130;2022-12-29T09:19:48;9.10;99.90
15617;DHT22;7908;51.688;7.130;2022-12-29T09:22:21;9.20;99.90
15617;DHT22;7908;51.688;7.130;2022-12-29T09:24:56;9.20;99.90
15617;DHT22;7908;51.688;7.130;2022-12-29T09:27:28;9.30;99.90
15617;DHT22;7908;51.688;7.130;2022-12-29T09:30:09;9.30;99.90
15617;DHT22;7908;51.688;7.130;2022-12-29T09:32:48;9.40;99.90
15617;DHT22;7908;51.688;7.130;2022-12-29T09:35:25;9.40;99.90
15617;DHT22;7908;51.688;7.130;2022-12-29T09:37:56;9.50;99.90
15617;DHT22;7908;51.688;7.130;2022-12-29T09:40:32;9.50;99.90
15617;DHT22;7908;51.688;7.130;2022-12-29T09:43:24;9.50;99.90
15617;DHT22;7908;51.688;7.130;2022-12-29T09:46:10;9.50;99.90
15617;DHT22;7908;51.688;7.130;2022-12-29T09:48:49;9.60;99.90
15617;DHT22;7908;51.688;7.130;2022-12-29T09:51:27;9.60;99.90
15617;DHT22;7908;51.688;7.130;2022-12-29T09:54:31;9.60;99.90
15617;DHT22;7908;51.688;7.130;2022-12-29T09:57:05;9.60;99.90
15617;DHT22;7908;51.688;7.130;2022-12-29T09:59:48;9.60;99.90
15617;DHT22;7908;51.688;7.130;2022-12-29T10:02:38;9.60;99.90
15617;DHT22;7908;51.688;7.130;2022-12-29T10:05:27;9.60;99.90
15617;DHT22;7908;51.688;7.130;2022-12-29T10:11:19;9.70;99.90
15617;DHT22;7908;51.688;7.130;2022-12-29T10:14:17;9.70;99.90
15617;DHT22;7908;51.688;7.130;2022-12-29T10:17:04;9.70;99.90
15617;DHT22;7908;51.688;7.130;2022-12-29T10:20:00;9.70;99.90
15617;DHT22;7908;51.688;7.130;2022-12-29T10:23:02;9.70;99.90
15617;DHT22;7908;51.688;7.130;2022-12-29T10:25:42;9.70;99.90
15617;DHT22;7908;51.688;7.130;2022-12-29T10:28:19;9.80;99.90
15617;DHT22;7908;51.688;7.130;2022-12-29T10:31:01;9.80;99.90
15617;DHT22;7908;51.688;7.130;2022-12-29T10:33:49;9.80;99.90
15617;DHT22;7908;51.688;7.130;2022-12-29T10:36:37;9.80;99.90
15617;DHT22;7908;51.688;7.130;2022-12-29T10:39:26;9.80;99.90
15617;DHT22;7908;51.688;7.130;2022-12-29T10:42:11;9.80;99.90
15617;DHT22;7908;51.688;7.130;2022-12-29T10:45:06;9.80;99.90
15617;DHT22;7908;51.688;7.130;2022-12-29T10:47:53;9.80;99.90
15617;DHT22;7908;51.688;7.130;2022-12-29T10:50:31;9.90;99.90
15617;DHT22;7908;51.688;7.130;2022-12-29T10:53:25;9.90;99.90
15617;DHT22;7908;51.688;7.130;2022-12-29T10:56:11;10.00;99.90
15617;DHT22;7908;51.688;7.130;2022-12-29T10:58:51;10.00;99.90
15617;DHT22;7908;51.688;7.130;2022-12-29T11:02:01;10.00;99.90
15617;DHT22;7908;51.688;7.130;2022-12-29T11:04:49;10.00;99.90
15617;DHT22;7908;51.688;7.130;2022-12-29T11:07:39;10.10;99.90
15617;DHT22;7908;51.688;7.130;2022-12-29T11:10:34;10.10;99.90
15617;DHT22;7908;51.688;7.130;2022-12-29T11:13:26;10.10;99.90
15617;DHT22;7908;51.688;7.130;2022-12-29T11:16:21;10.00;99.90
15617;DHT22;7908;51.688;7.130;2022-12-29T11:19:31;10.00;99.90
15617;DHT22;7908;51.688;7.130;2022-12-29T11:22:29;10.00;99.90
15617;DHT22;7908;51.688;7.130;2022-12-29T11:25:16;10.00;99.90
15617;DHT22;7908;51.688;7.130;2022-12-29T11:28:13;10.00;99.90
15617;DHT22;7908;51.688;7.130;2022-12-29T11:31:10;10.00;99.90
15617;DHT22;7908;51.688;7.130;2022-12-29T11:33:49;10.00;99.90
15617;DHT22;7908;51.688;7.130;2022-12-29T11:36:28;10.10;99.90
15617;DHT22;7908;51.688;7.130;2022-12-29T11:39:26;10.10;99.90
15617;DHT22;7908;51.688;7.130;2022-12-29T11:42:00;10.00;99.90
15617;DHT22;7908;51.688;7.130;2022-12-29T11:45:02;10.00;99.90
15617;DHT22;7908;51.688;7.130;2022-12-29T11:47:58;10.00;99.90
15617;DHT22;7908;51.688;7.130;2022-12-29T11:50:49;10.00;99.90
15617;DHT22;7908;51.688;7.130;2022-12-29T11:53:39;10.00;99.90
15617;DHT22;7908;51.688;7.130;2022-12-29T11:56:43;10.10;99.90
15617;DHT22;7908;51.688;7.130;2022-12-29T11:59:40;10.10;99.90
15617;DHT22;7908;51.688;7.130;2022-12-29T12:02:40;10.10;99.90
15617;DHT22;7908;51.688;7.130;2022-12-29T12:05:31;10.10;99.90
15617;DHT22;7908;51.688;7.130;2022-12-29T12:08:33;10.10;99.90
15617;DHT22;7908;51.688;7.130;2022-12-29T12:11:12;10.10;99.90
15617;DHT22;7908;51.688;7.130;2022-12-29T12:13:51;10.10;99.90
15617;DHT22;7908;51.688;7.130;2022-12-29T12:16:47;10.20;99.90
15617;DHT22;7908;51.688;7.130;2022-12-29T12:19:40;10.10;99.90
15617;DHT22;7908;51.688;7.130;2022-12-29T12:22:21;10.20;99.90
15617;DHT22;7908;51.688;7.130;2022-12-29T12:25:29;10.20;99.90
15617;DHT22;7908;51.688;7.130;2022-12-29T12:28:13;10.20;99.90
15617;DHT22;7908;51.688;7.130;2022-12-29T12:30:58;10.20;99.90
15617;DHT22;7908;51.688;7.130;2022-12-29T12:33:40;10.30;99.90
15617;DHT22;7908;51.688;7.130;2022-12-29T12:39:40;10.30;99.90
15617;DHT22;7908;51.688;7.130;2022-12-29T12:42:36;10.30;99.90
15617;DHT22;7908;51.688;7.130;2022-12-29T12:45:48;10.40;99.90
15617;DHT22;7908;51.688;7.130;2022-12-29T12:48:46;10.30;99.90
15617;DHT22;7908;51.688;7.130;2022-12-29T12:51:42;10.40;99.90
15617;DHT22;7908;51.688;7.130;2022-12-29T12:57:19;10.40;99.90
15617;DHT22;7908;51.688;7.130;2022-12-29T13:00:04;10.40;99.90
15617;DHT22;7908;51.688;7.130;2022-12-29T13:02:43;10.50;99.90
15617;DHT22;7908;51.688;7.130;2022-12-29T13:05:41;10.50;99.90
15617;DHT22;7908;51.688;7.130;2022-12-29T13:08:55;10.50;99.90
15617;DHT22;7908;51.688;7.130;2022-12-29T13:11:55;10.50;99.90
15617;DHT22;7908;51.688;7.130;2022-12-29T13:14:59;10.50;99.90
15617;DHT22;7908;51.688;7.130;2022-12-29T13:17:48;10.50;99.90
15617;DHT22;7908;51.688;7.130;2022-12-29T13:20:38;10.50;99.90
15617;DHT22;7908;51.688;7.130;2022-12-29T13:23:30;10.50;99.90
15617;DHT22;7908;51.688;7.130;2022-12-29T13:26:20;10.60;99.90
15617;DHT22;7908;51.688;7.130;2022-12-29T13:29:21;10.60;99.90
15617;DHT22;7908;51.688;7.130;2022-12-29T13:32:15;10.60;99.90
15617;DHT22;7908;51.688;7.130;2022-12-29T13:35:19;10.60;99.90
15617;DHT22;7908;51.688;7.130;2022-12-29T13:38:00;10.70;99.90
15617;DHT22;7908;51.688;7.130;2022-12-29T13:40:44;10.70;99.90
15617;DHT22;7908;51.688;7.130;2022-12-29T13:43:31;10.70;99.90
15617;DHT22;7908;51.688;7.130;2022-12-29T13:46:06;10.80;99.90
15617;DHT22;7908;51.688;7.130;2022-12-29T13:48:50;10.80;99.90
15617;DHT22;7908;51.688;7.130;2022-12-29T13:51:40;10.80;99.90
15617;DHT22;7908;51.688;7.130;2022-12-29T13:54:27;10.80;99.90
15617;DHT22;7908;51.688;7.130;2022-12-29T13:57:44;10.80;99.90
15617;DHT22;7908;51.688;7.130;2022-12-29T14:00:48;10.80;99.90
15617;DHT22;7908;51.688;7.130;2022-12-29T14:03:49;10.80;99.90
15617;DHT22;7908;51.688;7.130;2022-12-29T14:06:25;10.80;99.90
15617;DHT22;7908;51.688;7.130;2022-12-29T14:09:03;10.80;99.90
15617;DHT22;7908;51.688;7.130;2022-12-29T14:11:46;10.90;99.90
15617;DHT22;7908;51.688;7.130;2022-12-29T14:14:42;10.90;99.90
15617;DHT22;7908;51.688;7.130;2022-12-29T14:17:27;10.90;99.90
15617;DHT22;7908;51.688;7.130;2022-12-29T14:20:19;10.90;99.90
15617;DHT22;7908;51.688;7.130;2022-12-29T14:22:59;10.80;99.90
15617;DHT22;7908;51.688;7.130;2022-12-29T14:25:57;10.80;99.90
15617;DHT22;7908;51.688;7.130;2022-12-29T14:28:39;10.80;99.90
15617;DHT22;7908;51.688;7.130;2022-12-29T14:31:36;10.80;99.90
15617;DHT22;7908;51.688;7.130;2022-12-29T14:35:00;10.70;99.90
15617;DHT22;7908;51.688;7.130;2022-12-29T14:38:21;10.70;99.90
15617;DHT22;7908;51.688;7.130;2022-12-29T14:41:26;10.70;99.90
15617;DHT22;7908;51.688;7.130;2022-12-29T14:44:26;10.70;99.90
15617;DHT22;7908;51.688;7.130;2022-12-29T14:47:00;10.70;99.90
15617;DHT22;7908;51.688;7.130;2022-12-29T14:50:00;10.70;99.90
15617;DHT22;7908;51.688;7.130;2022-12-29T14:53:05;10.70;99.90
15617;DHT22;7908;51.688;7.130;2022-12-29T14:56:03;10.70;99.90
15617;DHT22;7908;51.688;7.130;2022-12-29T14:59:00;10.60;99.90
15617;DHT22;7908;51.688;7.130;2022-12-29T15:01:51;10.60;99.90
15617;DHT22;7908;51.688;7.130;2022-12-29T15:04:34;10.50;99.90
15617;DHT22;7908;51.688;7.130;2022-12-29T15:07:27;10.50;99.90
15617;DHT22;7908;51.688;7.130;2022-12-29T15:10:25;10.40;99.90
15617;DHT22;7908;51.688;7.130;2022-12-29T15:13:17;10.40;99.90
15617;DHT22;7908;51.688;7.130;2022-12-29T15:16:03;10.40;99.90
15617;DHT22;7908;51.688;7.130;2022-12-29T15:18:53;10.40;99.90
15617;DHT22;7908;51.688;7.130;2022-12-29T15:24:58;10.40;99.90
15617;DHT22;7908;51.688;7.130;2022-12-29T15:27:36;10.30;99.90
15617;DHT22;7908;51.688;7.130;2022-12-29T15:30:28;10.30;99.90
15617;DHT22;7908;51.688;7.130;2022-12-29T15:33:24;10.30;99.90
15617;DHT22;7908;51.688;7.130;2022-12-29T15:36:16;10.30;99.90
15617;DHT22;7908;51.688;7.130;2022-12-29T15:41:53;10.30;99.90
15617;DHT22;7908;51.688;7.130;2022-12-29T15:44:46;10.30;99.90
15617;DHT22;7908;51.688;7.130;2022-12-29T15:47:37;10.30;99.90
15617;DHT22;7908;51.688;7.130;2022-12-29T15:50:33;10.30;99.90
15617;DHT22;7908;51.688;7.130;2022-12-29T15:53:31;10.30;99.90
15617;DHT22;7908;51.688;7.130;2022-12-29T15:56:30;10.30;99.90
15617;DHT22;7908;51.688;7.130;2022-12-29T15:59:33;10.30;99.90
15617;DHT22;7908;51.688;7.130;2022-12-29T16:02:11;10.30;99.90
15617;DHT22;7908;51.688;7.130;2022-12-29T16:04:50;10.30;99.90
15617;DHT22;7908;51.688;7.130;2022-12-29T16:07:58;10.30;99.90
15617;DHT22;7908;51.688;7.130;2022-12-29T16:10:55;10.30;99.90
15617;DHT22;7908;51.688;7.130;2022-12-29T16:13:39;10.30;99.90
15617;DHT22;7908;51.688;7.130;2022-12-29T16:16:35;10.30;99.90
15617;DHT22;7908;51.688;7.130;2022-12-29T16:19:26;10.20;99.90
15617;DHT22;7908;51.688;7.130;2022-12-29T16:22:09;10.20;99.90
15617;DHT22;7908;51.688;7.130;2022-12-29T16:24:50;10.20;99.90
15617;DHT22;7908;51.688;7.130;2022-12-29T16:27:48;10.10;99.90
15617;DHT22;7908;51.688;7.130;2022-12-29T16:30:37;10.10;99.90
15617;DHT22;7908;51.688;7.130;2022-12-29T16:33:44;10.10;99.90
15617;DHT22;7908;51.688;7.130;2022-12-29T16:36:32;10.10;99.90
15617;DHT22;7908;51.688;7.130;2022-12-29T16:39:33;10.00;99.90
15617;DHT22;7908;51.688;7.130;2022-12-29T16:42:47;10.00;99.90
15617;DHT22;7908;51.688;7.130;2022-12-29T16:49:12;9.90;99.90
15617;DHT22;7908;51.688;7.130;2022-12-29T16:51:57;9.80;99.90
15617;DHT22;7908;51.688;7.130;2022-12-29T16:54:39;9.60;99.90
15617;DHT22;7908;51.688;7.130;2022-12-29T16:57:24;9.40;99.90
15617;DHT22;7908;51.688;7.130;2022-12-29T17:02:58;8.90;99.90
15617;DHT22;7908;51.688;7.130;2022-12-29T17:05:42;8.80;99.90
15617;DHT22;7908;51.688;7.130;2022-12-29T17:08:39;8.60;99.90
15617;DHT22;7908;51.688;7.130;2022-12-29T17:11:26;8.50;99.90
15617;DHT22;7908;51.688;7.130;2022-12-29T17:14:35;8.40;99.90
15617;DHT22;7908;51.688;7.130;2022-12-29T17:17:20;8.30;99.90
15617;DHT22;7908;51.688;7.130;2022-12-29T17:20:15;8.30;99.90
15617;DHT22;7908;51.688;7.130;2022-12-29T17:22:58;8.20;99.90
15617;DHT22;7908;51.688;7.130;2022-12-29T17:25:40;8.20;99.90
15617;DHT22;7908;51.688;7.130;2022-12-29T17:28:31;8.20;99.90
15617;DHT22;7908;51.688;7.130;2022-12-29T17:31:11;8.10;99.90
15617;DHT22;7908;51.688;7.130;2022-12-29T17:33:56;8.00;99.90
15617;DHT22;7908;51.688;7.130;2022-12-29T17:36:49;8.00;99.90
15617;DHT22;7908;51.688;7.130;2022-12-29T17:43:07;7.90;99.90
15617;DHT22;7908;51.688;7.130;2022-12-29T17:45:55;7.80;99.90
15617;DHT22;7908;51.688;7.130;2022-12-29T17:48:44;7.80;99.90
15617;DHT22;7908;51.688;7.130;2022-12-29T17:51:24;7.70;99.90